Hamburg Express — DFKM2 — position and weather

sailwx.info

Track history (hours):
 
Tides and Currents Weather Stations Pressure Air Temp Water Temp Dewpoint Dewpoint Depression Visibility Wind Speed Wind Dir Waves Ship Positions

Hamburg Express

Last reported at 2014-Sep-01 11:33 UTC. Time now 2014-Sep-01 11:37 UTC.
Position N 29°47' E 122°16'.

Length 366 m; draft 12.3 m.

Type: Cargo ship. MMSI: 218774000.

Date/timePositionNaut miles runAvg speedWind from/ knotsBaromVisibWave heightAir tempDewpointWater temp
2014-Sep-01 11:33N 29°47' E 122°16'1212.1
2014-Sep-01 10:33N 29°55' E 122°05'2 1.9
2014-Sep-01 09:33N 29°53' E 122°03'0 0.0
2014-Sep-01 08:33N 29°53' E 122°03'0 0.0
2014-Sep-01 07:33N 29°53' E 122°03'0 0.0
2014-Sep-01 06:33N 29°53' E 122°03'0 0.0
2014-Sep-01 05:27N 29°53' E 122°03'0 0.0
2014-Sep-01 04:33N 29°53' E 122°03'0 0.0
2014-Sep-01 03:33N 29°53' E 122°03'0 0.0
2014-Sep-01 02:21N 29°53' E 122°03'0 0.0
2014-Sep-01 01:33N 29°53' E 122°03'0 0.0
2014-Sep-01 00:33N 29°53' E 122°03'0 0.0
2014-Aug-31 23:33N 29°53' E 122°03'0 0.0
2014-Aug-31 22:33N 29°53' E 122°03'0 0.0
2014-Aug-31 21:33N 29°53' E 122°03'0 0.0
2014-Aug-31 20:33N 29°53' E 122°03'0 0.0
2014-Aug-31 19:33N 29°53' E 122°03'0 0.0
2014-Aug-31 18:33N 29°53' E 122°03'0 0.0
2014-Aug-31 17:33N 29°53' E 122°03'0 0.0
2014-Aug-31 16:33N 29°53' E 122°03'0 0.0
2014-Aug-31 15:33N 29°53' E 122°03'0 0.0
2014-Aug-31 14:33N 29°53' E 122°03'0 0.0
2014-Aug-31 13:33N 29°53' E 122°03'0 0.0
2014-Aug-31 12:33N 29°53' E 122°03'0 0.0
2014-Aug-31 11:33N 29°53' E 122°03'0 0.0
2014-Aug-31 10:33N 29°53' E 122°03'0 0.0
2014-Aug-31 09:33N 29°53' E 122°03'0 0.0
2014-Aug-31 08:33N 29°53' E 122°03'0 0.0
2014-Aug-31 07:33N 29°53' E 122°03'3 3.0
2014-Aug-31 06:33N 29°55' E 122°06'1212.3
2014-Aug-31 05:33N 29°47' E 122°17'1010.1
2014-Aug-31 04:33N 29°43' E 122°27'1714.6
2014-Aug-31 03:25N 29°27' E 122°33'1718.3
2014-Aug-31 02:31N 29°11' E 122°32'15918.7
2014-Aug-30 18:00N 26°48' E 121°12'11619.3 110 / 121010.210.8 28.024.628.6
2014-Aug-30 12:00N 25°12' E 120°00'2113.6 040 / 121011.610.8 0.528.423.528.9
2014-Aug-30 10:28N 24°55' E 119°47'1919.0
2014-Aug-30 09:28N 24°43' E 119°31'1718.9
2014-Aug-30 08:33N 24°31' E 119°16'1818.1
2014-Aug-30 07:33N 24°21' E 119°00'1918.5
2014-Aug-30 06:33N 24°09' E 118°45'1918.7
2014-Aug-30 05:33N 23°56' E 118°30'1818.2
2014-Aug-30 04:34N 23°44' E 118°15'1918.7
2014-Aug-30 03:33N 23°33' E 117°59'1919.2
2014-Aug-30 02:33N 23°21' E 117°42'4418.9
2014-Aug-30 00:12N 22°55' E 117°03'1218.9
2014-Aug-29 23:33N 22°49' E 116°51'14417.9
2014-Aug-29 15:30N 22°34' E 114°16'1 0.2
2014-Aug-29 12:18N 22°34' E 114°16'0 0.0
2014-Aug-29 11:30N 22°34' E 114°16'0 0.0
2014-Aug-29 09:24N 22°34' E 114°16'0 0.0
2014-Aug-29 02:31N 22°34' E 114°16'13315.6
2014-Aug-28 18:00N 20°24' E 113°48'12621.1 080 / 111011.110.8 28.324.728.9
2014-Aug-28 12:00N 18°24' E 113°06'35819.9 200 / 111011.210.8 0.527.622.328.9
2014-Aug-27 18:00N 12°54' E 110°42'13722.8 210 / 191007.810.8 28.124.728.6
2014-Aug-27 12:00N 10°48' E 109°48'36520.3 190 / 71007.610.8 0.527.823.028.9
2014-Aug-26 18:00N 05°30' E 106°48'30119.1 180 / 161009.310.8 27.523.928.8
2014-Aug-26 02:13N 01°16' E 104°07'1116.8
2014-Aug-26 01:34N 01°13' E 103°56'6 6.1
2014-Aug-26 00:33N 01°16' E 103°51'1 0.5
2014-Aug-25 23:33N 01°16' E 103°50'0 0.0
2014-Aug-25 22:24N 01°16' E 103°50'0 0.0
2014-Aug-25 21:27N 01°16' E 103°50'0 0.0
2014-Aug-25 20:18N 01°16' E 103°50'0 0.0
2014-Aug-25 19:33N 01°16' E 103°50'0 0.0
2014-Aug-25 18:33N 01°16' E 103°50'0 0.0
2014-Aug-25 17:24N 01°16' E 103°50'0 0.0
2014-Aug-25 16:33N 01°16' E 103°50'0 0.0
2014-Aug-25 15:33N 01°16' E 103°50'0 0.0
2014-Aug-25 14:33N 01°16' E 103°50'0 0.0
2014-Aug-25 13:33N 01°16' E 103°50'0 0.0
2014-Aug-25 12:33N 01°16' E 103°50'0 0.0
2014-Aug-25 11:30N 01°16' E 103°50'0 0.0
2014-Aug-25 10:30N 01°16' E 103°50'0 0.0
2014-Aug-25 09:30N 01°16' E 103°50'0 0.0
2014-Aug-25 08:33N 01°16' E 103°50'0 0.0
2014-Aug-25 07:30N 01°16' E 103°50'0 0.0
2014-Aug-25 06:33N 01°16' E 103°50'0 0.0
2014-Aug-25 05:33N 01°16' E 103°50'0 0.0
2014-Aug-25 04:30N 01°16' E 103°50'0 0.0
2014-Aug-25 03:33N 01°16' E 103°50'0 0.0
2014-Aug-25 02:33N 01°16' E 103°50'0 0.0
2014-Aug-25 01:33N 01°16' E 103°50'0 0.0
2014-Aug-25 00:33N 01°16' E 103°50'0 0.0
2014-Aug-24 23:30N 01°16' E 103°50'0 0.0
2014-Aug-24 22:30N 01°16' E 103°50'0 0.0
2014-Aug-24 21:30N 01°16' E 103°50'0 0.0
2014-Aug-24 20:30N 01°16' E 103°50'0 0.0
2014-Aug-24 19:30N 01°16' E 103°50'0 0.0
2014-Aug-24 18:33N 01°16' E 103°50'0 0.0
2014-Aug-24 17:30N 01°16' E 103°50'0 0.0
2014-Aug-24 16:33N 01°16' E 103°50'0 0.0
2014-Aug-24 15:30N 01°16' E 103°50'0 0.0
2014-Aug-24 14:33N 01°16' E 103°50'0 0.0
2014-Aug-24 13:30N 01°16' E 103°50'0 0.0
2014-Aug-24 12:33N 01°16' E 103°50'0 0.0
2014-Aug-24 11:33N 01°16' E 103°50'3 2.6
2014-Aug-24 10:33N 01°14' E 103°52'1 0.6
2014-Aug-24 09:33N 01°14' E 103°53'2 2.0
2014-Aug-24 08:33N 01°12' E 103°52'5 5.2
2014-Aug-24 07:32N 01°10' E 103°47'26713.7
2014-Aug-23 12:00N 03°30' E 100°00'8914.8 999 / 21010.110.8 0.529.023.229.2
2014-Aug-23 06:00N 04°30' E 098°54'18215.2 250 / 61012.0 5.4 29.822.529.5
2014-Aug-22 18:00N 05°42' E 096°06'   180 / 101011.010.8 28.223.328.8
Track history (hours):
 
Tides and Currents Weather Stations Pressure Air Temp Water Temp Dewpoint Dewpoint Depression Visibility Wind Speed Wind Dir Waves Ship Positions

Hamburg Express

Last reported at 2014-Sep-01 11:33 UTC. Time now 2014-Sep-01 11:37 UTC.
Position N 29°47' E 122°16'.

Length 366 m; draft 12.3 m.

Type: Cargo ship. MMSI: 218774000.

Date/timePositionNaut miles runAvg speedWind from/ knotsBaromVisibWave heightAir tempDewpointWater temp
2014-Sep-01 11:33N 29°47' E 122°16'1212.1
2014-Sep-01 10:33N 29°55' E 122°05'2 1.9
2014-Sep-01 09:33N 29°53' E 122°03'0 0.0
2014-Sep-01 08:33N 29°53' E 122°03'0 0.0
2014-Sep-01 07:33N 29°53' E 122°03'0 0.0
2014-Sep-01 06:33N 29°53' E 122°03'0 0.0
2014-Sep-01 05:27N 29°53' E 122°03'0 0.0
2014-Sep-01 04:33N 29°53' E 122°03'0 0.0
2014-Sep-01 03:33N 29°53' E 122°03'0 0.0
2014-Sep-01 02:21N 29°53' E 122°03'0 0.0
2014-Sep-01 01:33N 29°53' E 122°03'0 0.0
2014-Sep-01 00:33N 29°53' E 122°03'0 0.0
2014-Aug-31 23:33N 29°53' E 122°03'0 0.0
2014-Aug-31 22:33N 29°53' E 122°03'0 0.0
2014-Aug-31 21:33N 29°53' E 122°03'0 0.0
2014-Aug-31 20:33N 29°53' E 122°03'0 0.0
2014-Aug-31 19:33N 29°53' E 122°03'0 0.0
2014-Aug-31 18:33N 29°53' E 122°03'0 0.0
2014-Aug-31 17:33N 29°53' E 122°03'0 0.0
2014-Aug-31 16:33N 29°53' E 122°03'0 0.0
2014-Aug-31 15:33N 29°53' E 122°03'0 0.0
2014-Aug-31 14:33N 29°53' E 122°03'0 0.0
2014-Aug-31 13:33N 29°53' E 122°03'0 0.0
2014-Aug-31 12:33N 29°53' E 122°03'0 0.0
2014-Aug-31 11:33N 29°53' E 122°03'0 0.0
2014-Aug-31 10:33N 29°53' E 122°03'0 0.0
2014-Aug-31 09:33N 29°53' E 122°03'0 0.0
2014-Aug-31 08:33N 29°53' E 122°03'0 0.0
2014-Aug-31 07:33N 29°53' E 122°03'3 3.0
2014-Aug-31 06:33N 29°55' E 122°06'1212.3
2014-Aug-31 05:33N 29°47' E 122°17'1010.1
2014-Aug-31 04:33N 29°43' E 122°27'1714.6
2014-Aug-31 03:25N 29°27' E 122°33'1718.3
2014-Aug-31 02:31N 29°11' E 122°32'15918.7
2014-Aug-30 18:00N 26°48' E 121°12'11619.3 110 / 121010.210.8 28.024.628.6
2014-Aug-30 12:00N 25°12' E 120°00'2113.6 040 / 121011.610.8 0.528.423.528.9
2014-Aug-30 10:28N 24°55' E 119°47'1919.0
2014-Aug-30 09:28N 24°43' E 119°31'1718.9
2014-Aug-30 08:33N 24°31' E 119°16'1818.1
2014-Aug-30 07:33N 24°21' E 119°00'1918.5
2014-Aug-30 06:33N 24°09' E 118°45'1918.7
2014-Aug-30 05:33N 23°56' E 118°30'1818.2
2014-Aug-30 04:34N 23°44' E 118°15'1918.7
2014-Aug-30 03:33N 23°33' E 117°59'1919.2
2014-Aug-30 02:33N 23°21' E 117°42'4418.9
2014-Aug-30 00:12N 22°55' E 117°03'1218.9
2014-Aug-29 23:33N 22°49' E 116°51'14417.9
2014-Aug-29 15:30N 22°34' E 114°16'1 0.2
2014-Aug-29 12:18N 22°34' E 114°16'0 0.0
2014-Aug-29 11:30N 22°34' E 114°16'0 0.0
2014-Aug-29 09:24N 22°34' E 114°16'0 0.0
2014-Aug-29 02:31N 22°34' E 114°16'13315.6
2014-Aug-28 18:00N 20°24' E 113°48'12621.1 080 / 111011.110.8 28.324.728.9
2014-Aug-28 12:00N 18°24' E 113°06'35819.9 200 / 111011.210.8 0.527.622.328.9
2014-Aug-27 18:00N 12°54' E 110°42'13722.8 210 / 191007.810.8 28.124.728.6
2014-Aug-27 12:00N 10°48' E 109°48'36520.3 190 / 71007.610.8 0.527.823.028.9
2014-Aug-26 18:00N 05°30' E 106°48'30119.1 180 / 161009.310.8 27.523.928.8
2014-Aug-26 02:13N 01°16' E 104°07'1116.8
2014-Aug-26 01:34N 01°13' E 103°56'6 6.1
2014-Aug-26 00:33N 01°16' E 103°51'1 0.5
2014-Aug-25 23:33N 01°16' E 103°50'0 0.0
2014-Aug-25 22:24N 01°16' E 103°50'0 0.0
2014-Aug-25 21:27N 01°16' E 103°50'0 0.0
2014-Aug-25 20:18N 01°16' E 103°50'0 0.0
2014-Aug-25 19:33N 01°16' E 103°50'0 0.0
2014-Aug-25 18:33N 01°16' E 103°50'0 0.0
2014-Aug-25 17:24N 01°16' E 103°50'0 0.0
2014-Aug-25 16:33N 01°16' E 103°50'0 0.0
2014-Aug-25 15:33N 01°16' E 103°50'0 0.0
2014-Aug-25 14:33N 01°16' E 103°50'0 0.0
2014-Aug-25 13:33N 01°16' E 103°50'0 0.0
2014-Aug-25 12:33N 01°16' E 103°50'0 0.0
2014-Aug-25 11:30N 01°16' E 103°50'0 0.0
2014-Aug-25 10:30N 01°16' E 103°50'0 0.0
2014-Aug-25 09:30N 01°16' E 103°50'0 0.0
2014-Aug-25 08:33N 01°16' E 103°50'0 0.0
2014-Aug-25 07:30N 01°16' E 103°50'0 0.0
2014-Aug-25 06:33N 01°16' E 103°50'0 0.0
2014-Aug-25 05:33N 01°16' E 103°50'0 0.0
2014-Aug-25 04:30N 01°16' E 103°50'0 0.0
2014-Aug-25 03:33N 01°16' E 103°50'0 0.0
2014-Aug-25 02:33N 01°16' E 103°50'0 0.0
2014-Aug-25 01:33N 01°16' E 103°50'0 0.0
2014-Aug-25 00:33N 01°16' E 103°50'0 0.0
2014-Aug-24 23:30N 01°16' E 103°50'0 0.0
2014-Aug-24 22:30N 01°16' E 103°50'0 0.0
2014-Aug-24 21:30N 01°16' E 103°50'0 0.0
2014-Aug-24 20:30N 01°16' E 103°50'0 0.0
2014-Aug-24 19:30N 01°16' E 103°50'0 0.0
2014-Aug-24 18:33N 01°16' E 103°50'0 0.0
2014-Aug-24 17:30N 01°16' E 103°50'0 0.0
2014-Aug-24 16:33N 01°16' E 103°50'0 0.0
2014-Aug-24 15:30N 01°16' E 103°50'0 0.0
2014-Aug-24 14:33N 01°16' E 103°50'0 0.0
2014-Aug-24 13:30N 01°16' E 103°50'0 0.0
2014-Aug-24 12:33N 01°16' E 103°50'0 0.0
2014-Aug-24 11:33N 01°16' E 103°50'3 2.6
2014-Aug-24 10:33N 01°14' E 103°52'1 0.6
2014-Aug-24 09:33N 01°14' E 103°53'2 2.0
2014-Aug-24 08:33N 01°12' E 103°52'5 5.2
2014-Aug-24 07:32N 01°10' E 103°47'26713.7
2014-Aug-23 12:00N 03°30' E 100°00'8914.8 999 / 21010.110.8 0.529.023.229.2
2014-Aug-23 06:00N 04°30' E 098°54'18215.2 250 / 61012.0 5.4 29.822.529.5
2014-Aug-22 18:00N 05°42' E 096°06'   180 / 101011.010.8 28.223.328.8

Dump ship's entire track history